Time;durP1;ratioP1;P1;durP2;ratioP2;P2;SDS_P1;SDS_P2;PMS_P1;PMS_P2;Temp;Humidity;BMP_temperature;BMP_pressure;BME280_temperature;BME280_humidity;BME280_pressure;Samples;Min_cycle;Max_cycle;Signal;HPM_P1;HPM_P2
2022/01/18 00:00:43;;;;;;;33.40;12.60;;;;;;;3.39;94.89;103754.13;5010171;28;20129;-71
2022/01/18 00:03:09;;;;;;;33.08;13.45;;;;;;;3.42;95.64;103743.94;5034247;28;20047;-71
2022/01/18 00:05:34;;;;;;;37.88;13.27;;;;;;;3.47;95.48;103744.22;5008490;28;20037;-72
2022/01/18 00:08:00;;;;;;;29.52;11.65;;;;;;;3.50;95.55;103741.81;5018890;28;20468;-72
2022/01/18 00:10:29;;;;;;;36.25;13.35;;;;;;;3.51;95.49;103748.81;5027354;28;20448;-71
2022/01/18 00:20:33;;;;;;;41.08;15.07;;;;;;;3.63;95.22;103756.47;5053670;28;20048;-71
2022/01/18 00:22:58;;;;;;;46.75;14.43;;;;;;;3.67;95.48;103757.59;5032946;28;20029;-71
2022/01/18 00:25:24;;;;;;;35.17;12.95;;;;;;;3.70;95.49;103757.78;5004687;28;20437;-72
2022/01/18 00:27:49;;;;;;;35.08;12.38;;;;;;;3.69;95.70;103756.84;5008454;28;20053;-72
2022/01/18 00:30:45;;;;;;;27.35;12.15;;;;;;;3.71;95.87;103744.91;5017633;28;20029;-72
2022/01/18 00:35:31;;;;;;;42.97;12.65;;;;;;;3.74;95.37;103758.06;5047259;28;20037;-72
2022/01/18 00:37:58;;;;;;;38.88;12.82;;;;;;;3.77;95.73;103763.44;5036997;28;20469;-71
2022/01/18 00:40:27;;;;;;;40.75;15.60;;;;;;;3.80;95.60;103762.75;5009541;28;20021;-71
2022/01/18 00:42:52;;;;;;;84.47;32.70;;;;;;;3.81;95.58;103773.22;5025100;28;20477;-71
2022/01/18 00:45:18;;;;;;;41.00;14.88;;;;;;;3.84;95.57;103772.50;5017821;28;20043;-71
2022/01/18 00:47:43;;;;;;;36.03;12.38;;;;;;;3.85;95.85;103776.91;4993787;28;20040;-71
2022/01/18 00:50:10;;;;;;;39.85;12.80;;;;;;;3.86;95.31;103777.78;5016546;28;20040;-72
2022/01/18 00:52:41;;;;;;;35.45;12.52;;;;;;;3.87;95.17;103782.19;4998273;28;20104;-71
2022/01/18 00:55:07;;;;;;;35.45;11.30;;;;;;;3.87;95.10;103782.19;5032909;28;20082;-72
2022/01/18 00:57:32;;;;;;;33.05;12.43;;;;;;;3.91;95.05;103781.59;5010739;28;20033;-71
2022/01/18 00:59:58;;;;;;;48.45;12.30;;;;;;;3.92;95.46;103791.13;5002771;28;20026;-71
2022/01/18 01:02:23;;;;;;;27.27;10.32;;;;;;;3.92;95.31;103791.13;5008325;28;20090;-72
2022/01/18 01:04:49;;;;;;;30.63;11.98;;;;;;;3.93;95.45;103786.03;5015136;28;20441;-71
2022/01/18 01:07:17;;;;;;;32.25;11.68;;;;;;;3.93;95.50;103780.84;5028912;28;20772;-72
2022/01/18 01:09:42;;;;;;;29.75;11.27;;;;;;;3.94;95.32;103777.47;5040289;28;20033;-72
2022/01/18 01:12:11;;;;;;;33.58;11.73;;;;;;;3.97;95.15;103781.97;4997708;28;20029;-73
2022/01/18 01:14:36;;;;;;;39.35;11.98;;;;;;;3.96;95.31;103774.97;5012887;28;20021;-73
2022/01/18 01:17:42;;;;;;;27.48;12.18;;;;;;;3.96;95.20;103774.97;5027667;28;20025;-71
2022/01/18 01:46:53;;;;;;;40.63;12.20;;;;;;;4.07;95.29;103765.28;4993012;28;20033;-71
2022/01/18 01:49:22;;;;;;;39.92;13.10;;;;;;;4.07;95.35;103763.56;5011547;28;20026;-71
2022/01/18 01:51:49;;;;;;;45.70;13.95;;;;;;;4.08;95.23;103773.16;5029598;28;20108;-71
2022/01/18 01:54:16;;;;;;;41.72;11.90;;;;;;;4.06;95.58;103761.75;4988466;28;20088;-72
2022/01/18 01:56:41;;;;;;;31.33;10.98;;;;;;;4.06;95.39;103766.94;5023117;28;20397;-71
2022/01/18 01:59:07;;;;;;;40.20;12.77;;;;;;;4.06;95.76;103766.94;5025823;28;20037;-71
2022/01/18 02:01:48;;;;;;;41.00;14.68;;;;;;;4.09;95.85;103777.53;5010114;28;20107;-72
2022/01/18 02:04:15;;;;;;;38.33;13.45;;;;;;;4.08;95.84;103774.84;5027086;28;20028;-71
2022/01/18 02:06:40;;;;;;;29.83;11.95;;;;;;;4.07;95.58;103776.53;5032569;28;20128;-71
2022/01/18 02:09:06;;;;;;;46.00;12.57;;;;;;;4.08;95.65;103778.34;5025350;28;20056;-71
2022/01/18 02:11:31;;;;;;;54.67;15.38;;;;;;;4.08;95.37;103780.94;5014959;28;20701;-72
2022/01/18 02:14:00;;;;;;;39.28;12.63;;;;;;;4.09;95.81;103781.81;5029580;28;20043;-71
2022/01/18 02:21:54;;;;;;;43.25;13.70;;;;;;;4.10;95.87;103776.72;5035229;28;20035;-71
2022/01/18 02:24:21;;;;;;;36.65;11.90;;;;;;;4.11;95.51;103775.06;5027390;28;20025;-71
2022/01/18 02:26:47;;;;;;;30.42;11.15;;;;;;;4.11;95.56;103775.94;4997651;28;20494;-71
2022/01/18 02:29:13;;;;;;;32.17;11.52;;;;;;;4.12;95.98;103767.34;5027370;28;20040;-71
2022/01/18 02:31:39;;;;;;;33.40;11.77;;;;;;;4.14;95.47;103781.31;5014400;28;20036;-71
2022/01/18 02:34:10;;;;;;;33.92;12.02;;;;;;;4.14;95.41;103775.22;5031229;28;20017;-71
2022/01/18 02:36:35;;;;;;;;;;;;;;;4.22;95.71;103773.97;5030302;28;20104;-72
2022/01/18 02:39:04;;;;;;;35.97;10.98;;;;;;;4.17;95.39;103765.03;5029672;28;20692;-71
2022/01/18 02:41:31;;;;;;;24.38;10.13;;;;;;;4.18;95.44;103761.66;5030801;28;20029;-71
2022/01/18 02:44:05;;;;;;;26.65;12.90;;;;;;;4.19;95.57;103757.34;5012797;28;20603;-71
2022/01/18 02:46:31;;;;;;;39.53;12.88;;;;;;;4.19;95.39;103760.81;5021108;28;20041;-74
2022/01/18 02:49:01;;;;;;;32.08;11.38;;;;;;;4.20;95.63;103759.16;5012186;28;20025;-75
2022/01/18 02:51:27;;;;;;;45.65;14.40;;;;;;;4.21;95.40;103755.72;5031316;28;20036;-75
2022/01/18 02:54:01;;;;;;;41.22;13.65;;;;;;;4.21;95.79;103755.72;5034830;28;20033;-75
2022/01/18 02:56:34;;;;;;;43.60;12.95;;;;;;;4.22;95.63;103768.78;5033171;28;20021;-74
2022/01/18 03:04:32;;;;;;;36.10;14.73;;;;;;;4.26;95.65;103760.41;5052075;28;20043;-74
2022/01/18 03:06:57;;;;;;;38.72;14.60;;;;;;;4.26;95.36;103760.41;5014339;28;20402;-75
2022/01/18 03:09:23;;;;;;;43.97;15.25;;;;;;;4.27;95.51;103761.31;5018507;28;20037;-75
2022/01/18 03:11:48;;;;;;;45.30;15.27;;;;;;;4.26;95.48;103762.09;5034401;28;20111;-75
2022/01/18 03:14:14;;;;;;;54.42;15.63;;;;;;;4.27;95.34;103763.91;5002213;28;20053;-75
2022/01/18 03:16:39;;;;;;;41.88;15.05;;;;;;;4.25;95.74;103762.91;4995243;28;20059;-75
2022/01/18 03:19:05;;;;;;;46.03;15.40;;;;;;;4.23;95.57;103762.81;4988230;28;20100;-75
2022/01/18 03:21:30;;;;;;;42.17;15.30;;;;;;;4.22;95.91;103773.09;5016711;28;20531;-75
2022/01/18 03:24:11;;;;;;;46.15;15.50;;;;;;;4.22;95.68;103765.31;5051973;28;20033;-75
2022/01/18 03:28:04;;;;;;;54.25;15.73;;;;;;;4.22;95.41;103768.78;5031188;28;20025;-75
2022/01/18 03:29:26;;;;;;;51.10;17.20;;;;;;;4.22;95.73;103783.47;5038738;28;20025;-75
2022/01/18 03:31:53;;;;;;;34.03;14.82;;;;;;;4.22;95.73;103773.09;5032073;28;20028;-75
2022/01/18 03:34:21;;;;;;;47.72;16.90;;;;;;;4.21;95.83;103776.50;5010799;28;20041;-75
2022/01/18 03:36:46;;;;;;;46.88;17.02;;;;;;;4.21;95.51;103776.50;5037604;28;20400;-75
2022/01/18 03:39:12;;;;;;;40.88;14.82;;;;;;;4.22;95.84;103773.09;5017121;28;20033;-75
2022/01/18 03:41:38;;;;;;;40.30;15.45;;;;;;;4.22;95.46;103771.38;5018134;28;20033;-75
2022/01/18 03:44:09;;;;;;;53.90;16.33;;;;;;;4.22;95.57;103773.09;5002651;28;20037;-74
2022/01/18 03:46:36;;;;;;;;;;;;;;;4.29;95.55;103770.06;5035514;28;20039;-74
2022/01/18 03:49:04;;;;;;;55.67;15.73;;;;;;;4.22;95.35;103767.91;5033732;28;19912;-74
2022/01/18 03:51:30;;;;;;;50.13;16.38;;;;;;;4.21;95.50;103771.28;5046737;28;20038;-75
2022/01/18 03:53:55;;;;;;;43.58;15.88;;;;;;;4.21;95.61;103781.69;5014278;28;20132;-74
2022/01/18 03:56:23;;;;;;;55.70;18.75;;;;;;;4.19;95.26;103783.28;5018206;28;20064;-74
2022/01/18 03:58:51;;;;;;;37.85;15.75;;;;;;;4.20;95.61;103785.09;5027221;28;20028;-74
2022/01/18 04:01:16;;;;;;;43.05;16.70;;;;;;;4.18;95.24;103784.09;5026895;28;20440;-74
2022/01/18 04:03:42;;;;;;;43.45;15.55;;;;;;;4.17;95.56;103783.22;5032423;28;20036;-74
2022/01/18 04:06:07;;;;;;;61.90;18.92;;;;;;;4.17;95.45;103791.00;5001378;28;20044;-74
2022/01/18 04:08:33;;;;;;;39.08;17.05;;;;;;;4.16;95.61;103795.25;5037530;28;20029;-74
2022/01/18 04:10:58;;;;;;;39.70;14.63;;;;;;;4.19;95.54;103801.47;5029905;28;20091;-74
2022/01/18 04:13:26;;;;;;;42.42;15.73;;;;;;;4.19;95.71;103798.88;5025618;28;20094;-74
2022/01/18 04:15:52;;;;;;;42.78;17.00;;;;;;;4.19;95.62;103798.88;5017416;28;20028;-74
2022/01/18 04:18:30;;;;;;;49.10;17.50;;;;;;;4.18;95.81;103808.38;5032361;28;20094;-74
2022/01/18 04:29:01;;;;;;;45.75;17.15;;;;;;;4.18;95.39;103802.25;5034139;28;20496;-73
2022/01/18 04:31:28;;;;;;;48.90;18.50;;;;;;;4.18;95.67;103803.19;5013896;28;20382;-73
2022/01/18 04:33:54;;;;;;;51.78;18.25;;;;;;;4.18;95.70;103802.25;5031208;28;20027;-74
2022/01/18 04:36:20;;;;;;;66.30;18.38;;;;;;;4.15;95.59;103798.69;5025086;28;20028;-74
2022/01/18 04:38:48;;;;;;;58.60;18.20;;;;;;;4.16;95.35;103805.66;5032658;28;20101;-74
2022/01/18 04:41:17;;;;;;;80.47;19.48;;;;;;;4.13;95.82;103805.47;5007255;28;20029;-74
2022/01/18 04:43:52;;;;;;;52.67;18.77;;;;;;;4.13;95.48;103797.69;5033671;28;20036;-74
2022/01/18 04:49:03;;;;;;;42.58;16.42;;;;;;;4.13;95.75;103799.38;5050438;28;20120;-74
2022/01/18 04:51:29;;;;;;;54.85;19.17;;;;;;;4.13;95.62;103797.69;5032169;28;20033;-75
2022/01/18 04:53:57;;;;;;;65.97;20.15;;;;;;;4.12;95.77;103793.31;5031502;28;20040;-75
2022/01/18 04:59:17;;;;;;;75.10;19.08;;;;;;;4.11;95.56;103801.88;5003254;28;20064;-75
2022/01/18 05:01:46;;;;;;;62.03;18.48;;;;;;;4.10;95.68;103800.09;5006432;28;20122;-75
2022/01/18 05:04:14;;;;;;;69.00;18.50;;;;;;;4.10;95.74;103805.28;5041475;28;20044;-74
2022/01/18 05:06:42;;;;;;;58.65;18.48;;;;;;;4.11;95.54;103822.66;5022048;28;20033;-75
2022/01/18 05:09:09;;;;;;;46.33;18.67;;;;;;;4.10;95.80;103820.84;4999733;28;20022;-75
2022/01/18 05:11:43;;;;;;;58.65;19.05;;;;;;;4.12;96.01;103819.25;5003734;28;20037;-75
2022/01/18 05:14:30;;;;;;;82.68;22.45;;;;;;;4.12;96.04;103824.44;5012370;28;20036;-75
2022/01/18 05:17:08;;;;;;;38.40;18.92;;;;;;;4.09;95.60;103821.63;5030112;28;20017;-74
2022/01/18 05:19:48;;;;;;;54.20;18.92;;;;;;;4.08;95.52;103819.88;5009328;28;20029;-74
2022/01/18 05:25:00;;;;;;;42.95;18.15;;;;;;;4.07;95.38;103818.06;5030061;28;20455;-75
2022/01/18 05:27:26;;;;;;;46.63;17.90;;;;;;;4.05;95.87;103816.16;5013621;28;20033;-75
2022/01/18 05:29:53;;;;;;;42.33;17.70;;;;;;;4.04;95.70;103822.16;5013928;28;20673;-75
2022/01/18 05:32:19;;;;;;;59.70;18.75;;;;;;;4.02;95.48;103816.88;5015787;28;20048;-75
2022/01/18 05:34:48;;;;;;;45.83;18.85;;;;;;;4.01;95.60;103820.28;5014937;28;20036;-75
2022/01/18 05:37:13;;;;;;;61.58;18.27;;;;;;;4.02;95.62;103816.88;4996915;28;20063;-75
2022/01/18 05:39:39;;;;;;;45.38;17.83;;;;;;;4.01;95.43;103815.09;5001972;28;20653;-75
2022/01/18 05:42:05;;;;;;;41.78;17.15;;;;;;;4.00;95.35;103813.28;5031431;28;20457;-75
2022/01/18 05:44:30;;;;;;;55.47;17.08;;;;;;;4.00;95.35;103813.28;4994972;28;20037;-74
2022/01/18 05:46:56;;;;;;;52.15;16.88;;;;;;;3.97;95.73;103813.09;5015595;28;20037;-75
2022/01/18 05:49:21;;;;;;;49.22;18.13;;;;;;;3.97;95.50;103803.59;5028750;28;20037;-75
2022/01/18 05:51:47;;;;;;;42.78;17.13;;;;;;;3.97;95.70;103807.91;5002535;28;20041;-74
2022/01/18 05:54:13;;;;;;;44.55;17.27;;;;;;;3.96;95.37;103812.19;5008824;28;20032;-75
2022/01/18 05:56:39;;;;;;;63.60;19.95;;;;;;;3.95;95.50;103807.81;5032828;28;20035;-75
2022/01/18 05:59:06;;;;;;;48.03;17.60;;;;;;;3.96;95.23;103811.28;4994450;28;20029;-75
2022/01/18 06:01:34;;;;;;;55.10;19.45;;;;;;;3.95;95.25;103806.91;4999782;28;20067;-75
2022/01/18 06:09:10;;;;;;;48.13;17.33;;;;;;;3.93;95.52;103817.19;5017086;28;20048;-74
2022/01/18 06:11:35;;;;;;;45.67;18.50;;;;;;;3.92;95.28;103809.31;5012658;28;20033;-74
2022/01/18 06:14:01;;;;;;;63.45;19.17;;;;;;;3.92;95.72;103811.91;5014084;28;20370;-73
2022/01/18 06:16:27;;;;;;;64.30;19.02;;;;;;;3.90;95.57;103816.09;5004831;28;20029;-74
2022/01/18 06:18:53;;;;;;;42.75;18.33;;;;;;;3.89;95.51;103824.69;5027671;28;20037;-74
2022/01/18 06:21:19;;;;;;;56.15;20.33;;;;;;;3.90;95.59;103829.06;5022145;28;20070;-74
2022/01/18 06:23:44;;;;;;;65.38;20.33;;;;;;;3.89;95.50;103822.09;4994816;28;20037;-74
2022/01/18 06:26:14;;;;;;;55.28;19.17;;;;;;;3.86;95.81;103822.78;4997590;28;20029;-74
2022/01/18 06:28:40;;;;;;;55.88;20.25;;;;;;;3.88;95.86;103828.06;5012571;28;20037;-74
2022/01/18 06:31:08;;;;;;;47.85;17.88;;;;;;;3.87;95.67;103828.88;5015045;28;20110;-74
2022/01/18 06:33:33;;;;;;;46.65;19.00;;;;;;;3.87;95.43;103831.47;5022777;28;20112;-74
2022/01/18 06:35:59;;;;;;;45.70;18.25;;;;;;;3.84;95.56;103823.50;4996096;28;20564;-74
2022/01/18 06:38:24;;;;;;;41.42;16.13;;;;;;;3.84;95.27;103820.91;5030359;28;20060;-74
2022/01/18 06:40:52;;;;;;;57.67;18.90;;;;;;;3.82;95.29;103813.00;5028739;28;20039;-74
2022/01/18 06:43:18;;;;;;;48.08;18.38;;;;;;;3.82;95.75;103818.19;5014305;28;20037;-75
2022/01/18 06:45:43;;;;;;;63.40;20.33;;;;;;;3.81;95.63;103817.31;5027489;28;20086;-75
2022/01/18 06:48:09;;;;;;;61.88;18.23;;;;;;;3.80;95.61;103825.88;5013358;28;20033;-75
2022/01/18 06:50:37;;;;;;;54.35;18.25;;;;;;;3.79;95.50;103815.41;5024847;28;20083;-75
2022/01/18 06:53:02;;;;;;;51.15;17.55;;;;;;;3.79;95.68;103821.50;5004838;28;20567;-73
2022/01/18 06:55:28;;;;;;;58.22;17.73;;;;;;;3.77;95.34;103815.31;5019668;28;20033;-75
2022/01/18 06:57:54;;;;;;;49.90;18.10;;;;;;;3.78;95.02;103818.81;5030726;28;20120;-75
2022/01/18 07:00:20;;;;;;;55.10;18.48;;;;;;;3.76;95.17;103816.09;5024094;28;20140;-75
2022/01/18 07:02:46;;;;;;;55.80;16.90;;;;;;;3.76;95.74;103829.06;5027026;28;20110;-75
2022/01/18 07:05:11;;;;;;;63.05;17.75;;;;;;;3.74;95.33;103824.59;5007409;28;20129;-75
2022/01/18 07:07:38;;;;;;;55.25;17.67;;;;;;;3.73;95.36;103828.88;5026126;28;20132;-75
2022/01/18 07:10:04;;;;;;;65.00;18.85;;;;;;;3.74;95.25;103829.78;4997774;28;20045;-75
2022/01/18 07:12:33;;;;;;;50.38;18.02;;;;;;;3.74;95.46;103833.28;4997682;28;20042;-74
2022/01/18 07:15:01;;;;;;;46.13;17.67;;;;;;;3.73;95.52;103831.47;5018426;28;20043;-75
2022/01/18 07:17:29;;;;;;;40.50;18.13;;;;;;;3.73;95.52;103841.84;5016580;28;20037;-75
2022/01/18 07:19:55;;;;;;;56.08;18.08;;;;;;;3.73;95.87;103839.25;5016027;28;20021;-75
2022/01/18 07:22:20;;;;;;;60.53;17.95;;;;;;;3.73;95.89;103841.84;5015899;28;20029;-75
2022/01/18 07:24:47;;;;;;;60.15;18.13;;;;;;;3.73;95.68;103833.19;5011019;28;20037;-75
2022/01/18 07:27:15;;;;;;;49.25;16.60;;;;;;;3.75;95.01;103836.75;5007484;28;20041;-75
2022/01/18 07:29:42;;;;;;;38.90;17.05;;;;;;;3.77;95.66;103854.22;5014678;28;20087;-74
2022/01/18 07:32:09;;;;;;;41.67;16.17;;;;;;;3.75;95.45;103845.44;5031816;28;20508;-75
2022/01/18 07:34:40;;;;;;;42.05;17.38;;;;;;;3.76;95.92;103855.00;5026006;28;20090;-75
2022/01/18 07:37:06;;;;;;;47.60;16.85;;;;;;;3.77;95.47;103851.63;5011457;28;20029;-75
2022/01/18 07:39:34;;;;;;;46.80;16.40;;;;;;;3.77;95.72;103846.44;4995419;28;20565;-75
2022/01/18 07:41:59;;;;;;;47.13;18.05;;;;;;;3.79;95.90;103850.03;5010305;28;20033;-75
2022/01/18 07:44:25;;;;;;;37.97;15.70;;;;;;;3.79;95.78;103850.03;4999193;28;20382;-75
2022/01/18 07:46:50;;;;;;;50.28;18.08;;;;;;;3.79;95.73;103855.22;5031432;28;20071;-74
2022/01/18 07:49:16;;;;;;;60.33;18.75;;;;;;;3.81;95.54;103861.41;4986146;28;20488;-74
2022/01/18 07:51:44;;;;;;;43.72;19.23;;;;;;;3.83;96.03;103855.44;5019021;28;20120;-75
2022/01/18 07:54:10;;;;;;;37.97;20.50;;;;;;;3.83;95.48;103855.44;5016499;28;20206;-74
2022/01/18 07:56:36;;;;;;;50.38;19.13;;;;;;;3.86;95.30;103861.69;5015862;28;20143;-75
2022/01/18 07:59:02;;;;;;;44.13;17.73;;;;;;;3.85;95.50;103859.00;5030936;28;20486;-75
2022/01/18 08:01:28;;;;;;;52.33;19.80;;;;;;;3.87;95.58;103862.63;5001804;28;20513;-75
2022/01/18 08:03:53;;;;;;;50.83;20.48;;;;;;;3.87;95.13;103853.13;5050976;28;20063;-74
2022/01/18 08:06:19;;;;;;;56.47;19.27;;;;;;;3.87;95.22;103852.25;5032317;28;20477;-75
2022/01/18 08:08:44;;;;;;;62.70;19.77;;;;;;;3.86;95.21;103856.50;5007350;28;20065;-75
2022/01/18 08:11:09;;;;;;;47.25;18.92;;;;;;;3.89;95.22;103856.69;5033774;28;20043;-75
2022/01/18 08:13:44;;;;;;;41.45;18.50;;;;;;;3.91;95.54;103862.03;5004697;28;20036;-74
2022/01/18 08:16:22;;;;;;;44.42;18.20;;;;;;;3.93;95.19;103863.00;5032044;28;20040;-75
2022/01/18 08:18:50;;;;;;;49.47;18.27;;;;;;;3.92;95.66;103862.13;5012065;28;20031;-75
2022/01/18 08:21:15;;;;;;;37.00;17.95;;;;;;;3.93;95.55;103868.19;5025872;28;20059;-75
2022/01/18 08:23:41;;;;;;;33.25;17.05;;;;;;;3.94;95.34;103854.44;5050385;28;20446;-75
2022/01/18 08:26:06;;;;;;;38.80;19.55;;;;;;;3.96;95.60;103865.78;5000386;28;20063;-75
2022/01/18 08:28:34;;;;;;;39.88;18.58;;;;;;;3.97;95.47;103860.69;5006739;28;20059;-75
2022/01/18 08:30:59;;;;;;;34.13;18.05;;;;;;;3.97;95.00;103852.91;5030425;28;20033;-75
2022/01/18 08:33:25;;;;;;;40.80;18.92;;;;;;;4.02;95.61;103868.75;5016520;28;21409;-75
2022/01/18 08:35:51;;;;;;;32.20;17.58;;;;;;;4.03;95.33;103865.38;4997799;28;20029;-75
2022/01/18 08:38:17;;;;;;;45.10;19.13;;;;;;;4.06;95.06;103865.56;5033344;28;20033;-75
2022/01/18 08:40:43;;;;;;;46.95;20.25;;;;;;;4.09;95.63;103864.88;5016606;28;20028;-75
2022/01/18 08:43:09;;;;;;;47.70;19.00;;;;;;;4.10;95.36;103856.28;5032529;28;20039;-75
2022/01/18 08:45:35;;;;;;;41.85;17.85;;;;;;;4.13;95.71;103859.09;5005279;28;20037;-75
2022/01/18 08:48:03;;;;;;;42.00;18.73;;;;;;;4.13;95.40;103857.38;5021535;28;20474;-75
2022/01/18 08:50:31;;;;;;;37.50;18.17;;;;;;;4.16;94.97;103841.09;5012509;28;20050;-74
2022/01/18 08:52:56;;;;;;;31.00;17.05;;;;;;;4.22;95.20;103850.97;5026783;28;20076;-75
2022/01/18 08:55:22;;;;;;;43.45;17.48;;;;;;;4.25;95.42;103856.34;5028063;28;20122;-75
2022/01/18 08:57:47;;;;;;;33.70;17.63;;;;;;;4.27;95.23;103858.25;5000128;28;20040;-75
2022/01/18 09:00:15;;;;;;;36.67;17.38;;;;;;;4.28;95.04;103865.25;5019656;28;20036;-75
2022/01/18 09:02:41;;;;;;;33.78;16.63;;;;;;;4.31;94.66;103864.50;5022711;28;20038;-75
2022/01/18 09:05:08;;;;;;;31.08;17.27;;;;;;;4.33;94.98;103860.34;5014955;28;20163;-75
2022/01/18 09:07:36;;;;;;;29.67;16.67;;;;;;;4.38;94.97;103866.69;5016929;28;20028;-75
2022/01/18 09:10:06;;;;;;;34.60;16.40;;;;;;;4.39;94.99;103863.31;5012516;28;20034;-74
2022/01/18 09:12:32;;;;;;;39.72;19.00;;;;;;;4.45;94.60;103868.91;5032970;28;20033;-75
2022/01/18 09:15:00;;;;;;;35.72;16.80;;;;;;;4.48;94.84;103874.28;5000524;28;20033;-75
2022/01/18 09:17:28;;;;;;;44.20;17.65;;;;;;;4.54;94.91;103875.44;5000942;28;20126;-74
2022/01/18 09:19:58;;;;;;;41.88;17.10;;;;;;;4.61;95.05;103872.44;5013430;28;20434;-75
2022/01/18 09:22:24;;;;;;;77.25;22.40;;;;;;;4.68;95.50;103872.00;5018491;28;20374;-75
2022/01/18 09:24:49;;;;;;;31.33;16.55;;;;;;;4.80;96.07;103877.97;5025355;28;20543;-75
2022/01/18 09:27:17;;;;;;;33.22;16.45;;;;;;;4.82;95.76;103878.94;5001381;28;20042;-75
2022/01/18 09:29:43;;;;;;;33.60;14.55;;;;;;;4.93;95.87;103881.28;5024686;28;20040;-75
2022/01/18 09:32:09;;;;;;;31.48;14.75;;;;;;;4.94;95.51;103877.88;5031928;28;20377;-75
2022/01/18 09:34:36;;;;;;;26.70;14.65;;;;;;;5.05;95.55;103879.44;5016555;28;20025;-75
2022/01/18 09:37:02;;;;;;;36.80;15.55;;;;;;;5.10;95.97;103878.00;5008582;28;20056;-75
2022/01/18 09:39:30;;;;;;;23.77;14.60;;;;;;;5.13;95.35;103867.78;4998188;28;20057;-74
2022/01/18 09:42:02;;;;;;;28.50;14.73;;;;;;;5.20;95.31;103879.44;5032922;28;20056;-75
2022/01/18 09:44:29;;;;;;;36.33;16.45;;;;;;;5.31;95.72;103880.09;5051136;28;20091;-75
2022/01/18 09:46:54;;;;;;;24.30;14.50;;;;;;;5.31;95.14;103887.88;5016384;28;20585;-75
2022/01/18 09:49:20;;;;;;;24.05;15.45;;;;;;;5.36;95.10;103887.34;5032789;28;20489;-75
2022/01/18 09:51:45;;;;;;;28.55;14.98;;;;;;;5.33;93.85;103878.47;5000261;28;20172;-75
2022/01/18 09:54:11;;;;;;;34.08;17.20;;;;;;;5.39;94.41;103894.44;5015963;28;20393;-75
2022/01/18 09:56:37;;;;;;;33.38;17.05;;;;;;;5.41;93.62;103895.41;5032504;28;20029;-75
2022/01/18 09:59:03;;;;;;;34.80;16.48;;;;;;;5.43;93.35;103893.81;4992476;28;20029;-75
2022/01/18 10:01:33;;;;;;;33.63;15.05;;;;;;;5.48;93.33;103901.88;5032111;28;20045;-75
2022/01/18 10:04:19;;;;;;;30.73;15.90;;;;;;;5.57;92.91;103898.91;5009253;28;20051;-75
2022/01/18 10:06:47;;;;;;;32.05;15.38;;;;;;;5.62;93.06;103900.09;5032848;28;20515;-75
2022/01/18 10:09:15;;;;;;;36.03;17.70;;;;;;;5.64;92.66;103895.88;5024078;28;20034;-75
2022/01/18 10:12:00;;;;;;;38.00;19.27;;;;;;;5.80;92.88;103893.31;5006550;28;20414;-75
2022/01/18 10:14:26;;;;;;;28.23;17.48;;;;;;;5.87;92.40;103899.78;5025798;28;20450;-75
2022/01/18 10:16:52;;;;;;;30.15;17.42;;;;;;;6.01;92.98;103892.78;5016109;28;20124;-75
2022/01/18 10:19:43;;;;;;;35.95;20.08;;;;;;;6.14;92.27;103905.69;5031625;28;20025;-75
2022/01/18 10:22:18;;;;;;;36.17;17.45;;;;;;;6.37;93.04;103903.44;5019466;28;20043;-75
2022/01/18 10:24:47;;;;;;;25.45;16.05;;;;;;;6.52;91.93;103901.69;5022274;28;20021;-75
2022/01/18 10:27:13;;;;;;;26.45;16.42;;;;;;;6.58;91.56;103893.31;5031915;28;20033;-75
2022/01/18 10:29:50;;;;;;;28.23;14.98;;;;;;;6.67;91.43;103896.41;4996866;28;20474;-74
2022/01/18 10:37:25;;;;;;;29.85;16.20;;;;;;;6.65;90.42;103894.50;5049880;28;20393;-74
2022/01/18 10:39:51;;;;;;;25.02;15.55;;;;;;;6.67;89.96;103885.09;5035904;28;20512;-74
2022/01/18 10:42:27;;;;;;;29.17;17.38;;;;;;;6.69;90.23;103875.63;5027572;28;20057;-74
2022/01/18 10:45:21;;;;;;;28.63;17.05;;;;;;;6.68;89.24;103879.94;5034537;28;20511;-74
2022/01/18 10:48:10;;;;;;;31.02;17.05;;;;;;;6.64;88.74;103882.28;5031695;28;20374;-74
2022/01/18 10:50:42;;;;;;;33.15;16.65;;;;;;;6.55;89.38;103867.97;5022531;28;20037;-75
2022/01/18 10:53:19;;;;;;;31.80;17.13;;;;;;;6.54;89.53;103876.59;5024235;28;20067;-75
2022/01/18 10:55:47;;;;;;;27.60;15.45;;;;;;;6.49;89.33;103872.84;5031744;28;20474;-74
2022/01/18 10:58:18;;;;;;;30.50;16.50;;;;;;;6.51;89.66;103866.03;5024661;28;20063;-75
2022/01/18 11:00:44;;;;;;;37.50;17.73;;;;;;;6.55;90.09;103869.66;5031272;28;20028;-74
2022/01/18 11:03:10;;;;;;;32.35;17.13;;;;;;;6.57;89.61;103861.13;5008072;28;20052;-74
2022/01/18 11:05:38;;;;;;;39.67;18.58;;;;;;;6.62;89.55;103857.88;5027464;28;20443;-74
2022/01/18 11:08:06;;;;;;;30.40;17.50;;;;;;;6.66;89.86;103849.41;5031984;28;20091;-74
2022/01/18 11:10:37;;;;;;;33.35;17.48;;;;;;;6.73;90.00;103847.19;5015923;28;20040;-74
2022/01/18 11:13:07;;;;;;;29.08;16.63;;;;;;;6.81;89.59;103854.53;5034537;28;20028;-74
2022/01/18 11:15:37;;;;;;;27.70;17.20;;;;;;;6.98;89.66;103852.78;5008905;28;20071;-74
2022/01/18 11:18:07;;;;;;;33.05;17.60;;;;;;;6.99;88.17;103849.38;5028019;28;20092;-74
2022/01/18 11:20:37;;;;;;;34.47;19.23;;;;;;;7.05;88.03;103849.69;5008431;28;20135;-74
2022/01/18 11:23:07;;;;;;;36.42;18.58;;;;;;;7.24;89.06;103847.19;5035890;28;20089;-74
2022/01/18 11:25:36;;;;;;;38.47;17.55;;;;;;;7.48;88.68;103845.72;5008758;28;20040;-74
2022/01/18 11:28:08;;;;;;;39.58;19.17;;;;;;;7.91;90.88;103847.81;5033709;28;20035;-74
2022/01/18 11:30:36;;;;;;;51.15;19.98;;;;;;;8.44;88.14;103836.38;5029800;28;20037;-74
2022/01/18 11:33:06;;;;;;;38.78;19.77;;;;;;;9.00;87.11;103836.19;5031136;28;20024;-74
2022/01/18 11:35:58;;;;;;;40.85;18.60;;;;;;;9.31;83.96;103835.75;5043389;28;20045;-74
2022/01/18 11:38:42;;;;;;;32.00;16.98;;;;;;;9.57;81.08;103835.94;5041819;28;20024;-75
2022/01/18 11:41:25;;;;;;;34.60;19.00;;;;;;;10.46;83.63;103829.72;5031084;28;20029;-74
2022/01/18 11:43:52;;;;;;;34.03;21.02;;;;;;;12.11;78.37;103837.84;5027908;28;20057;-74
2022/01/18 11:46:30;;;;;;;33.13;17.48;;;;;;;12.78;75.54;103835.34;5031742;28;20029;-74
2022/01/18 11:49:04;;;;;;;35.92;16.88;;;;;;;13.40;73.64;103836.97;5047244;28;20384;-74
2022/01/18 11:51:43;;;;;;;28.38;14.15;;;;;;;13.73;72.93;103828.06;5031154;28;20041;-74
2022/01/18 11:54:56;;;;;;;22.67;12.65;;;;;;;13.50;72.77;103831.06;5031017;28;20029;-75
2022/01/18 11:57:21;;;;;;;34.00;13.73;;;;;;;13.25;67.51;103846.22;5032718;28;20029;-74
2022/01/18 11:59:52;;;;;;;20.48;12.80;;;;;;;12.89;66.43;103828.63;5030397;28;20074;-75
2022/01/18 12:02:29;;;;;;;33.53;14.38;;;;;;;12.93;69.48;103830.50;5032600;28;20060;-75
2022/01/18 12:04:57;;;;;;;25.80;13.45;;;;;;;13.21;65.94;103832.97;5030499;28;20044;-75
2022/01/18 12:08:15;;;;;;;31.52;14.45;;;;;;;13.31;69.85;103840.22;5019684;28;20040;-72
2022/01/18 12:10:43;;;;;;;25.08;13.82;;;;;;;12.74;66.34;103829.13;4985877;28;20059;-72
2022/01/18 12:13:14;;;;;;;30.27;15.18;;;;;;;12.56;67.13;103831.25;5030306;28;20062;-73
2022/01/18 12:15:49;;;;;;;27.60;11.70;;;;;;;12.49;68.63;103830.19;5045957;28;20025;-73
2022/01/18 12:18:24;;;;;;;25.08;10.48;;;;;;;12.38;69.82;103827.22;5049016;28;20075;-73
2022/01/18 12:20:55;;;;;;;23.27;11.02;;;;;;;12.79;66.40;103822.25;5026856;28;20052;-74
2022/01/18 12:23:24;;;;;;;23.33;10.60;;;;;;;13.13;67.68;103820.50;5018504;28;20116;-73
2022/01/18 12:25:58;;;;;;;24.10;11.00;;;;;;;15.03;64.06;103810.47;5022802;28;20389;-74
2022/01/18 12:28:48;;;;;;;25.27;10.23;;;;;;;16.47;62.27;103810.72;5028698;28;20589;-74
2022/01/18 12:34:28;;;;;;;18.98;8.85;;;;;;;17.83;60.88;103801.25;5040279;28;20029;-74
2022/01/18 12:37:20;;;;;;;26.05;9.65;;;;;;;17.07;60.57;103803.38;5029899;28;20029;-74
2022/01/18 12:45:19;;;;;;;27.67;10.40;;;;;;;18.95;57.68;103797.13;5037540;28;20063;-74
2022/01/18 12:47:51;;;;;;;17.63;9.43;;;;;;;20.10;48.82;103788.03;5049116;28;20115;-74